sensor_id;sensor_type;location;lat;lon;timestamp;P1;durP1;ratioP1;P2;durP2;ratioP2
38811;SDS011;24553;51.640;-0.752;2023-05-23T00:00:56;4.13;;;2.72;;
38811;SDS011;24553;51.640;-0.752;2023-05-23T00:03:22;7.70;;;3.22;;
38811;SDS011;24553;51.640;-0.752;2023-05-23T00:05:48;2.95;;;2.28;;
38811;SDS011;24553;51.640;-0.752;2023-05-23T00:08:15;8.05;;;3.22;;
38811;SDS011;24553;51.640;-0.752;2023-05-23T00:10:41;4.35;;;2.83;;
38811;SDS011;24553;51.640;-0.752;2023-05-23T00:13:06;3.03;;;2.05;;
38811;SDS011;24553;51.640;-0.752;2023-05-23T00:15:33;2.53;;;1.75;;
38811;SDS011;24553;51.640;-0.752;2023-05-23T00:18:01;5.13;;;1.88;;
38811;SDS011;24553;51.640;-0.752;2023-05-23T00:20:26;3.65;;;2.28;;
38811;SDS011;24553;51.640;-0.752;2023-05-23T00:22:52;7.13;;;2.65;;
38811;SDS011;24553;51.640;-0.752;2023-05-23T00:25:18;5.10;;;2.38;;
38811;SDS011;24553;51.640;-0.752;2023-05-23T00:27:45;4.57;;;2.58;;
38811;SDS011;24553;51.640;-0.752;2023-05-23T00:30:11;4.60;;;2.33;;
38811;SDS011;24553;51.640;-0.752;2023-05-23T00:32:36;6.07;;;2.63;;
38811;SDS011;24553;51.640;-0.752;2023-05-23T00:35:02;6.35;;;2.63;;
38811;SDS011;24553;51.640;-0.752;2023-05-23T00:37:27;4.75;;;3.03;;
38811;SDS011;24553;51.640;-0.752;2023-05-23T00:39:53;9.43;;;2.53;;
38811;SDS011;24553;51.640;-0.752;2023-05-23T00:42:18;3.17;;;2.20;;
38811;SDS011;24553;51.640;-0.752;2023-05-23T00:44:43;4.10;;;2.40;;
38811;SDS011;24553;51.640;-0.752;2023-05-23T00:47:09;2.70;;;1.92;;
38811;SDS011;24553;51.640;-0.752;2023-05-23T00:49:37;6.07;;;2.00;;
38811;SDS011;24553;51.640;-0.752;2023-05-23T00:52:03;4.60;;;2.38;;
38811;SDS011;24553;51.640;-0.752;2023-05-23T00:54:29;6.97;;;3.20;;
38811;SDS011;24553;51.640;-0.752;2023-05-23T00:56:57;3.47;;;1.90;;
38811;SDS011;24553;51.640;-0.752;2023-05-23T00:59:23;5.22;;;2.42;;
38811;SDS011;24553;51.640;-0.752;2023-05-23T01:01:50;5.18;;;2.42;;
38811;SDS011;24553;51.640;-0.752;2023-05-23T01:04:16;4.95;;;2.05;;
38811;SDS011;24553;51.640;-0.752;2023-05-23T01:06:44;3.40;;;2.15;;
38811;SDS011;24553;51.640;-0.752;2023-05-23T01:09:11;3.92;;;2.20;;
38811;SDS011;24553;51.640;-0.752;2023-05-23T01:14:46;3.22;;;2.42;;
38811;SDS011;24553;51.640;-0.752;2023-05-23T01:17:20;3.35;;;2.22;;
38811;SDS011;24553;51.640;-0.752;2023-05-23T01:20:15;2.92;;;1.55;;
38811;SDS011;24553;51.640;-0.752;2023-05-23T01:22:58;3.42;;;1.83;;
38811;SDS011;24553;51.640;-0.752;2023-05-23T01:26:04;3.00;;;2.35;;
38811;SDS011;24553;51.640;-0.752;2023-05-23T01:28:48;4.25;;;2.55;;
38811;SDS011;24553;51.640;-0.752;2023-05-23T01:31:16;5.35;;;3.50;;
38811;SDS011;24553;51.640;-0.752;2023-05-23T01:33:42;6.25;;;2.10;;
38811;SDS011;24553;51.640;-0.752;2023-05-23T01:36:08;2.75;;;1.80;;
38811;SDS011;24553;51.640;-0.752;2023-05-23T01:38:37;4.40;;;2.15;;
38811;SDS011;24553;51.640;-0.752;2023-05-23T01:41:02;4.07;;;2.50;;
38811;SDS011;24553;51.640;-0.752;2023-05-23T01:43:28;7.43;;;2.75;;
38811;SDS011;24553;51.640;-0.752;2023-05-23T01:45:53;5.38;;;2.53;;
38811;SDS011;24553;51.640;-0.752;2023-05-23T01:48:21;3.92;;;2.28;;
38811;SDS011;24553;51.640;-0.752;2023-05-23T01:50:48;5.32;;;2.90;;
38811;SDS011;24553;51.640;-0.752;2023-05-23T01:53:15;8.73;;;2.20;;
38811;SDS011;24553;51.640;-0.752;2023-05-23T01:55:43;4.85;;;2.60;;
38811;SDS011;24553;51.640;-0.752;2023-05-23T01:58:09;4.97;;;3.08;;
38811;SDS011;24553;51.640;-0.752;2023-05-23T02:00:35;3.90;;;1.48;;
38811;SDS011;24553;51.640;-0.752;2023-05-23T02:03:00;2.63;;;1.55;;
38811;SDS011;24553;51.640;-0.752;2023-05-23T02:05:26;3.42;;;1.80;;
38811;SDS011;24553;51.640;-0.752;2023-05-23T02:07:51;6.25;;;2.40;;
38811;SDS011;24553;51.640;-0.752;2023-05-23T02:10:17;2.42;;;1.60;;
38811;SDS011;24553;51.640;-0.752;2023-05-23T02:12:43;6.10;;;2.72;;
38811;SDS011;24553;51.640;-0.752;2023-05-23T02:15:08;4.20;;;2.42;;
38811;SDS011;24553;51.640;-0.752;2023-05-23T02:17:34;2.50;;;2.08;;
38811;SDS011;24553;51.640;-0.752;2023-05-23T02:19:59;5.97;;;1.98;;
38811;SDS011;24553;51.640;-0.752;2023-05-23T02:22:25;4.47;;;1.92;;
38811;SDS011;24553;51.640;-0.752;2023-05-23T02:24:50;3.75;;;2.00;;
38811;SDS011;24553;51.640;-0.752;2023-05-23T02:27:16;4.78;;;1.65;;
38811;SDS011;24553;51.640;-0.752;2023-05-23T02:29:42;3.20;;;1.73;;
38811;SDS011;24553;51.640;-0.752;2023-05-23T02:32:07;3.90;;;1.40;;
38811;SDS011;24553;51.640;-0.752;2023-05-23T02:34:32;3.78;;;1.35;;
38811;SDS011;24553;51.640;-0.752;2023-05-23T02:36:58;2.78;;;1.52;;
38811;SDS011;24553;51.640;-0.752;2023-05-23T02:39:23;2.72;;;1.95;;
38811;SDS011;24553;51.640;-0.752;2023-05-23T02:41:48;3.10;;;1.70;;
38811;SDS011;24553;51.640;-0.752;2023-05-23T02:44:14;2.53;;;1.38;;
38811;SDS011;24553;51.640;-0.752;2023-05-23T02:46:39;5.25;;;2.72;;
38811;SDS011;24553;51.640;-0.752;2023-05-23T02:49:04;1.38;;;1.27;;
38811;SDS011;24553;51.640;-0.752;2023-05-23T02:51:30;8.13;;;2.33;;
38811;SDS011;24553;51.640;-0.752;2023-05-23T02:53:56;3.45;;;2.33;;
38811;SDS011;24553;51.640;-0.752;2023-05-23T02:56:21;4.38;;;1.80;;
38811;SDS011;24553;51.640;-0.752;2023-05-23T02:58:47;3.78;;;1.50;;
38811;SDS011;24553;51.640;-0.752;2023-05-23T03:01:12;1.92;;;1.20;;
38811;SDS011;24553;51.640;-0.752;2023-05-23T03:03:38;5.93;;;1.55;;
38811;SDS011;24553;51.640;-0.752;2023-05-23T03:06:05;3.63;;;1.55;;
38811;SDS011;24553;51.640;-0.752;2023-05-23T03:08:31;3.17;;;1.15;;
38811;SDS011;24553;51.640;-0.752;2023-05-23T03:10:56;3.58;;;1.98;;
38811;SDS011;24553;51.640;-0.752;2023-05-23T03:13:22;2.42;;;0.75;;
38811;SDS011;24553;51.640;-0.752;2023-05-23T03:15:47;1.73;;;0.77;;
38811;SDS011;24553;51.640;-0.752;2023-05-23T03:18:12;2.38;;;1.58;;
38811;SDS011;24553;51.640;-0.752;2023-05-23T03:20:37;8.23;;;2.58;;
38811;SDS011;24553;51.640;-0.752;2023-05-23T03:23:03;2.30;;;1.10;;
38811;SDS011;24553;51.640;-0.752;2023-05-23T03:25:28;2.75;;;1.27;;
38811;SDS011;24553;51.640;-0.752;2023-05-23T03:27:53;3.30;;;0.88;;
38811;SDS011;24553;51.640;-0.752;2023-05-23T03:30:19;2.78;;;1.17;;
38811;SDS011;24553;51.640;-0.752;2023-05-23T03:32:45;1.92;;;1.15;;
38811;SDS011;24553;51.640;-0.752;2023-05-23T03:35:10;2.15;;;1.30;;
38811;SDS011;24553;51.640;-0.752;2023-05-23T03:37:36;1.33;;;1.05;;
38811;SDS011;24553;51.640;-0.752;2023-05-23T03:40:01;2.97;;;1.77;;
38811;SDS011;24553;51.640;-0.752;2023-05-23T03:42:27;5.18;;;2.45;;
38811;SDS011;24553;51.640;-0.752;2023-05-23T03:44:53;4.90;;;0.85;;
38811;SDS011;24553;51.640;-0.752;2023-05-23T03:47:18;4.30;;;1.10;;
38811;SDS011;24553;51.640;-0.752;2023-05-23T03:49:44;2.05;;;1.05;;
38811;SDS011;24553;51.640;-0.752;2023-05-23T03:52:09;1.45;;;0.60;;
38811;SDS011;24553;51.640;-0.752;2023-05-23T03:54:35;1.85;;;0.70;;
38811;SDS011;24553;51.640;-0.752;2023-05-23T03:57:01;0.43;;;0.43;;
38811;SDS011;24553;51.640;-0.752;2023-05-23T03:59:26;2.05;;;1.15;;
38811;SDS011;24553;51.640;-0.752;2023-05-23T04:01:52;1.48;;;0.40;;
38811;SDS011;24553;51.640;-0.752;2023-05-23T04:04:17;5.07;;;0.98;;
38811;SDS011;24553;51.640;-0.752;2023-05-23T04:06:44;5.70;;;2.88;;
38811;SDS011;24553;51.640;-0.752;2023-05-23T04:09:11;1.15;;;0.60;;
38811;SDS011;24553;51.640;-0.752;2023-05-23T04:11:37;2.20;;;1.58;;
38811;SDS011;24553;51.640;-0.752;2023-05-23T04:14:03;3.03;;;1.42;;
38811;SDS011;24553;51.640;-0.752;2023-05-23T04:16:28;1.15;;;0.40;;
38811;SDS011;24553;51.640;-0.752;2023-05-23T04:18:57;5.20;;;0.75;;
38811;SDS011;24553;51.640;-0.752;2023-05-23T04:21:22;4.68;;;0.90;;
38811;SDS011;24553;51.640;-0.752;2023-05-23T04:23:48;9.82;;;1.40;;
38811;SDS011;24553;51.640;-0.752;2023-05-23T04:26:13;1.88;;;0.45;;
38811;SDS011;24553;51.640;-0.752;2023-05-23T04:28:38;2.22;;;0.68;;
38811;SDS011;24553;51.640;-0.752;2023-05-23T04:31:04;0.40;;;0.13;;
38811;SDS011;24553;51.640;-0.752;2023-05-23T04:33:29;6.22;;;0.52;;
38811;SDS011;24553;51.640;-0.752;2023-05-23T04:35:55;2.58;;;0.70;;
38811;SDS011;24553;51.640;-0.752;2023-05-23T04:38:21;6.07;;;1.83;;
38811;SDS011;24553;51.640;-0.752;2023-05-23T04:40:49;1.75;;;0.90;;
38811;SDS011;24553;51.640;-0.752;2023-05-23T04:43:15;6.18;;;0.77;;
38811;SDS011;24553;51.640;-0.752;2023-05-23T04:45:40;3.33;;;0.68;;
38811;SDS011;24553;51.640;-0.752;2023-05-23T04:48:06;7.72;;;0.98;;
38811;SDS011;24553;51.640;-0.752;2023-05-23T04:50:32;0.77;;;0.52;;
38811;SDS011;24553;51.640;-0.752;2023-05-23T04:53:00;4.32;;;0.45;;
38811;SDS011;24553;51.640;-0.752;2023-05-23T04:55:26;2.13;;;1.52;;
38811;SDS011;24553;51.640;-0.752;2023-05-23T04:57:51;5.68;;;1.55;;
38811;SDS011;24553;51.640;-0.752;2023-05-23T05:00:16;2.50;;;0.55;;
38811;SDS011;24553;51.640;-0.752;2023-05-23T05:02:42;4.00;;;0.77;;
38811;SDS011;24553;51.640;-0.752;2023-05-23T05:05:07;6.45;;;0.68;;
38811;SDS011;24553;51.640;-0.752;2023-05-23T05:07:33;2.28;;;0.80;;
38811;SDS011;24553;51.640;-0.752;2023-05-23T05:09:59;3.60;;;2.30;;
38811;SDS011;24553;51.640;-0.752;2023-05-23T05:12:25;2.35;;;0.70;;
38811;SDS011;24553;51.640;-0.752;2023-05-23T05:14:50;2.47;;;0.63;;
38811;SDS011;24553;51.640;-0.752;2023-05-23T05:17:15;1.60;;;0.30;;
38811;SDS011;24553;51.640;-0.752;2023-05-23T05:19:42;4.53;;;1.13;;
38811;SDS011;24553;51.640;-0.752;2023-05-23T05:22:07;2.10;;;0.90;;
38811;SDS011;24553;51.640;-0.752;2023-05-23T05:24:33;1.95;;;0.47;;
38811;SDS011;24553;51.640;-0.752;2023-05-23T05:26:58;5.72;;;1.40;;
38811;SDS011;24553;51.640;-0.752;2023-05-23T05:29:23;1.05;;;0.50;;
38811;SDS011;24553;51.640;-0.752;2023-05-23T05:31:49;3.88;;;0.55;;
38811;SDS011;24553;51.640;-0.752;2023-05-23T05:34:15;3.83;;;0.65;;
38811;SDS011;24553;51.640;-0.752;2023-05-23T05:36:40;4.22;;;0.80;;
38811;SDS011;24553;51.640;-0.752;2023-05-23T05:39:11;0.88;;;0.52;;
38811;SDS011;24553;51.640;-0.752;2023-05-23T05:41:37;2.60;;;1.48;;
38811;SDS011;24553;51.640;-0.752;2023-05-23T05:44:03;4.70;;;1.77;;
38811;SDS011;24553;51.640;-0.752;2023-05-23T05:46:28;6.30;;;1.35;;
38811;SDS011;24553;51.640;-0.752;2023-05-23T05:48:53;2.70;;;0.73;;
38811;SDS011;24553;51.640;-0.752;2023-05-23T05:51:19;7.00;;;0.82;;
38811;SDS011;24553;51.640;-0.752;2023-05-23T05:53:44;2.20;;;0.88;;
38811;SDS011;24553;51.640;-0.752;2023-05-23T05:56:10;7.03;;;1.30;;
38811;SDS011;24553;51.640;-0.752;2023-05-23T05:58:35;6.10;;;2.35;;
38811;SDS011;24553;51.640;-0.752;2023-05-23T06:01:01;5.90;;;0.60;;
38811;SDS011;24553;51.640;-0.752;2023-05-23T06:03:26;5.38;;;1.00;;
38811;SDS011;24553;51.640;-0.752;2023-05-23T06:05:51;3.72;;;0.50;;
38811;SDS011;24553;51.640;-0.752;2023-05-23T06:08:16;6.40;;;1.08;;
38811;SDS011;24553;51.640;-0.752;2023-05-23T06:10:42;1.65;;;0.82;;
38811;SDS011;24553;51.640;-0.752;2023-05-23T06:13:07;6.25;;;1.33;;
38811;SDS011;24553;51.640;-0.752;2023-05-23T06:15:32;6.82;;;0.35;;
38811;SDS011;24553;51.640;-0.752;2023-05-23T06:17:58;2.00;;;0.90;;
38811;SDS011;24553;51.640;-0.752;2023-05-23T06:20:23;7.22;;;0.50;;
38811;SDS011;24553;51.640;-0.752;2023-05-23T06:22:48;5.35;;;1.40;;
38811;SDS011;24553;51.640;-0.752;2023-05-23T06:25:14;4.63;;;1.50;;
38811;SDS011;24553;51.640;-0.752;2023-05-23T06:27:39;3.85;;;0.70;;
38811;SDS011;24553;51.640;-0.752;2023-05-23T06:30:05;12.35;;;0.95;;
38811;SDS011;24553;51.640;-0.752;2023-05-23T06:32:31;4.13;;;0.50;;
38811;SDS011;24553;51.640;-0.752;2023-05-23T06:34:56;4.80;;;0.77;;
38811;SDS011;24553;51.640;-0.752;2023-05-23T06:37:21;2.72;;;0.60;;
38811;SDS011;24553;51.640;-0.752;2023-05-23T06:39:47;2.85;;;0.60;;
38811;SDS011;24553;51.640;-0.752;2023-05-23T06:42:12;4.43;;;1.40;;
38811;SDS011;24553;51.640;-0.752;2023-05-23T06:44:37;3.30;;;0.38;;
38811;SDS011;24553;51.640;-0.752;2023-05-23T06:47:03;4.95;;;0.45;;
38811;SDS011;24553;51.640;-0.752;2023-05-23T06:49:28;3.20;;;0.52;;
38811;SDS011;24553;51.640;-0.752;2023-05-23T06:51:53;8.82;;;0.70;;
38811;SDS011;24553;51.640;-0.752;2023-05-23T06:54:19;7.20;;;2.05;;
38811;SDS011;24553;51.640;-0.752;2023-05-23T06:56:44;9.02;;;0.68;;
38811;SDS011;24553;51.640;-0.752;2023-05-23T06:59:10;3.10;;;0.63;;
38811;SDS011;24553;51.640;-0.752;2023-05-23T07:01:35;2.40;;;0.32;;
38811;SDS011;24553;51.640;-0.752;2023-05-23T07:04:00;1.88;;;0.55;;
38811;SDS011;24553;51.640;-0.752;2023-05-23T07:06:26;4.13;;;0.60;;
38811;SDS011;24553;51.640;-0.752;2023-05-23T07:08:52;2.88;;;0.52;;
38811;SDS011;24553;51.640;-0.752;2023-05-23T07:11:17;3.35;;;0.85;;
38811;SDS011;24553;51.640;-0.752;2023-05-23T07:13:43;1.70;;;0.20;;
38811;SDS011;24553;51.640;-0.752;2023-05-23T07:16:09;7.57;;;1.00;;
38811;SDS011;24553;51.640;-0.752;2023-05-23T07:18:34;4.50;;;0.65;;
38811;SDS011;24553;51.640;-0.752;2023-05-23T07:20:59;3.15;;;0.65;;
38811;SDS011;24553;51.640;-0.752;2023-05-23T07:23:25;2.60;;;0.75;;
38811;SDS011;24553;51.640;-0.752;2023-05-23T07:25:50;1.80;;;0.40;;
38811;SDS011;24553;51.640;-0.752;2023-05-23T07:28:16;0.90;;;0.13;;
38811;SDS011;24553;51.640;-0.752;2023-05-23T07:30:41;1.42;;;0.30;;
38811;SDS011;24553;51.640;-0.752;2023-05-23T07:33:07;2.60;;;0.50;;
38811;SDS011;24553;51.640;-0.752;2023-05-23T07:35:32;5.10;;;0.88;;
38811;SDS011;24553;51.640;-0.752;2023-05-23T07:37:57;5.63;;;0.70;;
38811;SDS011;24553;51.640;-0.752;2023-05-23T07:40:23;4.13;;;0.77;;
38811;SDS011;24553;51.640;-0.752;2023-05-23T07:42:48;5.95;;;1.40;;
38811;SDS011;24553;51.640;-0.752;2023-05-23T07:45:14;0.75;;;0.40;;
38811;SDS011;24553;51.640;-0.752;2023-05-23T07:47:39;7.43;;;0.40;;
38811;SDS011;24553;51.640;-0.752;2023-05-23T07:50:06;2.00;;;0.65;;
38811;SDS011;24553;51.640;-0.752;2023-05-23T07:52:32;3.20;;;0.50;;
38811;SDS011;24553;51.640;-0.752;2023-05-23T07:54:57;2.60;;;0.50;;
38811;SDS011;24553;51.640;-0.752;2023-05-23T07:57:23;3.30;;;0.40;;
38811;SDS011;24553;51.640;-0.752;2023-05-23T07:59:49;6.55;;;0.28;;
38811;SDS011;24553;51.640;-0.752;2023-05-23T08:02:15;3.33;;;0.45;;
38811;SDS011;24553;51.640;-0.752;2023-05-23T08:04:41;4.22;;;0.68;;
38811;SDS011;24553;51.640;-0.752;2023-05-23T08:07:06;1.60;;;0.57;;
38811;SDS011;24553;51.640;-0.752;2023-05-23T08:09:32;2.67;;;0.40;;
38811;SDS011;24553;51.640;-0.752;2023-05-23T08:11:58;2.45;;;0.40;;
38811;SDS011;24553;51.640;-0.752;2023-05-23T08:14:23;5.63;;;1.10;;
38811;SDS011;24553;51.640;-0.752;2023-05-23T08:16:48;1.95;;;0.77;;
38811;SDS011;24553;51.640;-0.752;2023-05-23T08:19:14;1.05;;;0.30;;
38811;SDS011;24553;51.640;-0.752;2023-05-23T08:21:39;4.82;;;0.85;;
38811;SDS011;24553;51.640;-0.752;2023-05-23T08:24:06;1.63;;;0.43;;
38811;SDS011;24553;51.640;-0.752;2023-05-23T08:26:31;3.90;;;0.30;;
38811;SDS011;24553;51.640;-0.752;2023-05-23T08:28:59;3.22;;;0.55;;
38811;SDS011;24553;51.640;-0.752;2023-05-23T08:31:26;2.45;;;1.25;;
38811;SDS011;24553;51.640;-0.752;2023-05-23T08:33:55;5.90;;;0.55;;
38811;SDS011;24553;51.640;-0.752;2023-05-23T08:36:20;2.38;;;0.25;;
38811;SDS011;24553;51.640;-0.752;2023-05-23T08:38:46;8.18;;;0.30;;
38811;SDS011;24553;51.640;-0.752;2023-05-23T08:41:14;0.88;;;0.52;;
38811;SDS011;24553;51.640;-0.752;2023-05-23T08:43:43;2.72;;;0.57;;
38811;SDS011;24553;51.640;-0.752;2023-05-23T08:46:08;2.78;;;0.73;;
38811;SDS011;24553;51.640;-0.752;2023-05-23T08:48:34;6.25;;;1.67;;
38811;SDS011;24553;51.640;-0.752;2023-05-23T08:51:02;1.80;;;0.40;;
38811;SDS011;24553;51.640;-0.752;2023-05-23T08:53:28;2.85;;;0.40;;
38811;SDS011;24553;51.640;-0.752;2023-05-23T08:55:56;2.22;;;0.32;;
38811;SDS011;24553;51.640;-0.752;2023-05-23T08:58:26;5.57;;;0.40;;
38811;SDS011;24553;51.640;-0.752;2023-05-23T09:00:55;1.23;;;0.28;;
38811;SDS011;24553;51.640;-0.752;2023-05-23T09:03:21;4.78;;;0.73;;
38811;SDS011;24553;51.640;-0.752;2023-05-23T09:05:47;3.22;;;0.82;;
38811;SDS011;24553;51.640;-0.752;2023-05-23T09:08:14;3.17;;;0.40;;
38811;SDS011;24553;51.640;-0.752;2023-05-23T09:10:40;3.47;;;0.85;;
38811;SDS011;24553;51.640;-0.752;2023-05-23T09:13:06;1.45;;;0.60;;
38811;SDS011;24553;51.640;-0.752;2023-05-23T09:15:33;2.63;;;0.25;;
38811;SDS011;24553;51.640;-0.752;2023-05-23T09:17:59;1.88;;;0.35;;
38811;SDS011;24553;51.640;-0.752;2023-05-23T09:20:28;3.08;;;0.30;;
38811;SDS011;24553;51.640;-0.752;2023-05-23T09:22:54;3.28;;;0.40;;
38811;SDS011;24553;51.640;-0.752;2023-05-23T09:25:19;3.97;;;1.10;;
38811;SDS011;24553;51.640;-0.752;2023-05-23T09:27:45;1.48;;;0.68;;
38811;SDS011;24553;51.640;-0.752;2023-05-23T09:30:11;3.38;;;0.68;;
38811;SDS011;24553;51.640;-0.752;2023-05-23T09:32:37;3.70;;;0.75;;
38811;SDS011;24553;51.640;-0.752;2023-05-23T09:35:03;7.03;;;1.58;;
38811;SDS011;24553;51.640;-0.752;2023-05-23T09:39:58;1.48;;;0.40;;
38811;SDS011;24553;51.640;-0.752;2023-05-23T09:42:24;4.50;;;0.52;;
38811;SDS011;24553;51.640;-0.752;2023-05-23T09:44:55;2.80;;;0.85;;
38811;SDS011;24553;51.640;-0.752;2023-05-23T09:47:20;1.63;;;0.50;;
38811;SDS011;24553;51.640;-0.752;2023-05-23T09:49:46;5.20;;;1.38;;
38811;SDS011;24553;51.640;-0.752;2023-05-23T09:52:12;1.98;;;1.25;;
38811;SDS011;24553;51.640;-0.752;2023-05-23T09:54:37;4.53;;;0.47;;
38811;SDS011;24553;51.640;-0.752;2023-05-23T09:57:03;4.40;;;0.55;;
38811;SDS011;24553;51.640;-0.752;2023-05-23T09:59:41;7.93;;;0.52;;
38811;SDS011;24553;51.640;-0.752;2023-05-23T10:02:15;4.85;;;0.45;;
38811;SDS011;24553;51.640;-0.752;2023-05-23T10:04:41;5.28;;;0.38;;
38811;SDS011;24553;51.640;-0.752;2023-05-23T10:07:12;2.95;;;1.15;;
38811;SDS011;24553;51.640;-0.752;2023-05-23T10:09:39;1.65;;;0.77;;
38811;SDS011;24553;51.640;-0.752;2023-05-23T10:14:56;4.88;;;0.45;;
38811;SDS011;24553;51.640;-0.752;2023-05-23T10:17:50;3.67;;;0.93;;
38811;SDS011;24553;51.640;-0.752;2023-05-23T10:20:24;6.22;;;0.63;;
38811;SDS011;24553;51.640;-0.752;2023-05-23T10:22:50;1.50;;;0.47;;
38811;SDS011;24553;51.640;-0.752;2023-05-23T10:25:15;4.50;;;0.70;;
38811;SDS011;24553;51.640;-0.752;2023-05-23T10:27:41;3.63;;;0.70;;
38811;SDS011;24553;51.640;-0.752;2023-05-23T10:30:07;3.47;;;0.47;;
38811;SDS011;24553;51.640;-0.752;2023-05-23T10:32:33;6.75;;;0.43;;
38811;SDS011;24553;51.640;-0.752;2023-05-23T10:35:04;2.63;;;0.93;;
38811;SDS011;24553;51.640;-0.752;2023-05-23T10:42:55;1.50;;;0.40;;
38811;SDS011;24553;51.640;-0.752;2023-05-23T10:45:40;8.85;;;1.27;;
38811;SDS011;24553;51.640;-0.752;2023-05-23T10:48:30;3.60;;;1.45;;
38811;SDS011;24553;51.640;-0.752;2023-05-23T10:53:31;6.22;;;0.70;;
38811;SDS011;24553;51.640;-0.752;2023-05-23T10:56:00;4.40;;;1.13;;
38811;SDS011;24553;51.640;-0.752;2023-05-23T10:58:28;5.45;;;0.43;;
38811;SDS011;24553;51.640;-0.752;2023-05-23T11:00:55;7.32;;;1.05;;
38811;SDS011;24553;51.640;-0.752;2023-05-23T11:03:36;2.70;;;0.40;;
38811;SDS011;24553;51.640;-0.752;2023-05-23T11:06:29;1.60;;;0.25;;
38811;SDS011;24553;51.640;-0.752;2023-05-23T11:09:03;1.63;;;0.40;;
38811;SDS011;24553;51.640;-0.752;2023-05-23T11:14:13;3.60;;;0.43;;
38811;SDS011;24553;51.640;-0.752;2023-05-23T11:16:39;2.85;;;0.75;;
38811;SDS011;24553;51.640;-0.752;2023-05-23T11:21:53;3.70;;;0.32;;
38811;SDS011;24553;51.640;-0.752;2023-05-23T11:24:19;5.50;;;0.68;;
38811;SDS011;24553;51.640;-0.752;2023-05-23T11:26:54;4.22;;;0.88;;
38811;SDS011;24553;51.640;-0.752;2023-05-23T11:29:25;3.63;;;0.28;;
38811;SDS011;24553;51.640;-0.752;2023-05-23T11:31:51;5.72;;;1.35;;
38811;SDS011;24553;51.640;-0.752;2023-05-23T11:34:19;5.13;;;0.73;;
38811;SDS011;24553;51.640;-0.752;2023-05-23T11:36:45;3.55;;;0.70;;
38811;SDS011;24553;51.640;-0.752;2023-05-23T11:39:11;4.90;;;0.95;;
38811;SDS011;24553;51.640;-0.752;2023-05-23T11:41:37;4.57;;;1.00;;
38811;SDS011;24553;51.640;-0.752;2023-05-23T11:44:09;3.70;;;0.77;;
38811;SDS011;24553;51.640;-0.752;2023-05-23T11:46:36;2.20;;;0.50;;
38811;SDS011;24553;51.640;-0.752;2023-05-23T11:49:01;1.27;;;0.65;;
38811;SDS011;24553;51.640;-0.752;2023-05-23T11:51:26;4.45;;;0.88;;
38811;SDS011;24553;51.640;-0.752;2023-05-23T11:53:52;2.85;;;0.40;;
38811;SDS011;24553;51.640;-0.752;2023-05-23T11:56:18;2.15;;;0.55;;
38811;SDS011;24553;51.640;-0.752;2023-05-23T11:58:43;1.20;;;0.60;;
38811;SDS011;24553;51.640;-0.752;2023-05-23T12:01:10;2.45;;;1.05;;
38811;SDS011;24553;51.640;-0.752;2023-05-23T12:03:44;3.10;;;0.50;;
38811;SDS011;24553;51.640;-0.752;2023-05-23T12:06:15;3.97;;;0.82;;
38811;SDS011;24553;51.640;-0.752;2023-05-23T12:08:43;4.38;;;1.23;;
38811;SDS011;24553;51.640;-0.752;2023-05-23T12:11:09;4.00;;;1.55;;
38811;SDS011;24553;51.640;-0.752;2023-05-23T12:13:35;3.17;;;0.43;;
38811;SDS011;24553;51.640;-0.752;2023-05-23T12:16:01;5.38;;;0.60;;
38811;SDS011;24553;51.640;-0.752;2023-05-23T12:18:27;2.10;;;0.50;;
38811;SDS011;24553;51.640;-0.752;2023-05-23T12:20:54;1.15;;;0.20;;
38811;SDS011;24553;51.640;-0.752;2023-05-23T12:23:23;2.53;;;0.30;;
38811;SDS011;24553;51.640;-0.752;2023-05-23T12:25:51;4.30;;;0.73;;
38811;SDS011;24553;51.640;-0.752;2023-05-23T12:28:17;2.38;;;0.50;;
38811;SDS011;24553;51.640;-0.752;2023-05-23T12:30:44;3.38;;;1.13;;
38811;SDS011;24553;51.640;-0.752;2023-05-23T12:33:09;2.88;;;0.65;;
38811;SDS011;24553;51.640;-0.752;2023-05-23T12:35:35;1.92;;;0.65;;
38811;SDS011;24553;51.640;-0.752;2023-05-23T12:38:01;1.08;;;0.43;;
38811;SDS011;24553;51.640;-0.752;2023-05-23T12:40:30;2.53;;;0.40;;
38811;SDS011;24553;51.640;-0.752;2023-05-23T12:42:56;2.25;;;0.52;;
38811;SDS011;24553;51.640;-0.752;2023-05-23T12:45:22;5.85;;;0.63;;
38811;SDS011;24553;51.640;-0.752;2023-05-23T12:47:53;4.10;;;0.80;;
38811;SDS011;24553;51.640;-0.752;2023-05-23T12:50:18;2.67;;;0.47;;
38811;SDS011;24553;51.640;-0.752;2023-05-23T12:52:44;5.30;;;1.20;;
38811;SDS011;24553;51.640;-0.752;2023-05-23T12:55:10;1.35;;;0.22;;
38811;SDS011;24553;51.640;-0.752;2023-05-23T12:57:36;2.65;;;0.80;;
38811;SDS011;24553;51.640;-0.752;2023-05-23T13:00:02;5.13;;;0.93;;
38811;SDS011;24553;51.640;-0.752;2023-05-23T13:02:28;3.22;;;0.90;;
38811;SDS011;24553;51.640;-0.752;2023-05-23T13:04:54;6.10;;;1.27;;
38811;SDS011;24553;51.640;-0.752;2023-05-23T13:07:20;3.35;;;0.88;;
38811;SDS011;24553;51.640;-0.752;2023-05-23T13:09:45;1.88;;;0.70;;
38811;SDS011;24553;51.640;-0.752;2023-05-23T13:12:11;3.13;;;0.80;;
38811;SDS011;24553;51.640;-0.752;2023-05-23T13:14:36;3.42;;;1.63;;
38811;SDS011;24553;51.640;-0.752;2023-05-23T13:17:02;5.82;;;0.77;;
38811;SDS011;24553;51.640;-0.752;2023-05-23T13:19:28;3.03;;;1.15;;
38811;SDS011;24553;51.640;-0.752;2023-05-23T13:21:53;3.40;;;0.98;;
38811;SDS011;24553;51.640;-0.752;2023-05-23T13:24:18;3.42;;;0.50;;
38811;SDS011;24553;51.640;-0.752;2023-05-23T13:26:44;1.88;;;0.57;;
38811;SDS011;24553;51.640;-0.752;2023-05-23T13:29:09;2.10;;;0.75;;
38811;SDS011;24553;51.640;-0.752;2023-05-23T13:31:34;3.63;;;0.95;;
38811;SDS011;24553;51.640;-0.752;2023-05-23T13:34:00;4.13;;;1.60;;
38811;SDS011;24553;51.640;-0.752;2023-05-23T13:36:25;5.10;;;1.75;;
38811;SDS011;24553;51.640;-0.752;2023-05-23T13:38:51;2.17;;;0.60;;
38811;SDS011;24553;51.640;-0.752;2023-05-23T13:41:16;5.03;;;1.52;;
38811;SDS011;24553;51.640;-0.752;2023-05-23T13:43:42;2.08;;;0.30;;
38811;SDS011;24553;51.640;-0.752;2023-05-23T13:46:07;6.03;;;1.13;;
38811;SDS011;24553;51.640;-0.752;2023-05-23T13:48:33;3.28;;;0.50;;
38811;SDS011;24553;51.640;-0.752;2023-05-23T13:50:58;6.35;;;0.93;;
38811;SDS011;24553;51.640;-0.752;2023-05-23T13:53:23;4.97;;;0.60;;
38811;SDS011;24553;51.640;-0.752;2023-05-23T13:55:49;4.75;;;0.90;;
38811;SDS011;24553;51.640;-0.752;2023-05-23T13:58:14;4.32;;;0.73;;
38811;SDS011;24553;51.640;-0.752;2023-05-23T14:00:39;2.72;;;0.40;;
38811;SDS011;24553;51.640;-0.752;2023-05-23T14:03:05;6.50;;;1.00;;
38811;SDS011;24553;51.640;-0.752;2023-05-23T14:05:32;6.13;;;0.98;;
38811;SDS011;24553;51.640;-0.752;2023-05-23T14:07:57;1.77;;;0.40;;
38811;SDS011;24553;51.640;-0.752;2023-05-23T14:10:23;3.97;;;1.10;;
38811;SDS011;24553;51.640;-0.752;2023-05-23T14:12:48;1.17;;;0.90;;
38811;SDS011;24553;51.640;-0.752;2023-05-23T14:15:14;1.00;;;0.50;;
38811;SDS011;24553;51.640;-0.752;2023-05-23T14:17:40;7.28;;;1.35;;
38811;SDS011;24553;51.640;-0.752;2023-05-23T14:20:05;3.42;;;0.77;;
38811;SDS011;24553;51.640;-0.752;2023-05-23T14:22:33;3.60;;;0.93;;
38811;SDS011;24553;51.640;-0.752;2023-05-23T14:24:58;4.10;;;1.40;;
38811;SDS011;24553;51.640;-0.752;2023-05-23T14:27:23;3.03;;;1.35;;
38811;SDS011;24553;51.640;-0.752;2023-05-23T14:29:49;8.90;;;1.35;;
38811;SDS011;24553;51.640;-0.752;2023-05-23T14:32:14;6.18;;;0.95;;
38811;SDS011;24553;51.640;-0.752;2023-05-23T14:34:40;2.88;;;0.70;;
38811;SDS011;24553;51.640;-0.752;2023-05-23T14:37:05;2.67;;;1.08;;
38811;SDS011;24553;51.640;-0.752;2023-05-23T14:39:31;2.63;;;0.75;;
38811;SDS011;24553;51.640;-0.752;2023-05-23T14:41:56;4.00;;;0.95;;
38811;SDS011;24553;51.640;-0.752;2023-05-23T14:44:22;2.47;;;1.15;;
38811;SDS011;24553;51.640;-0.752;2023-05-23T14:46:47;2.42;;;0.77;;
38811;SDS011;24553;51.640;-0.752;2023-05-23T14:49:14;3.33;;;0.50;;
38811;SDS011;24553;51.640;-0.752;2023-05-23T14:51:40;1.40;;;0.75;;